PST,Max TemperatureF,Mean TemperatureF,Min TemperatureF,Max Dew PointF,MeanDew PointF,Min DewpointF,Max Humidity, Mean Humidity, Min Humidity, Max Sea Level PressureIn, Mean Sea Level PressureIn, Min Sea Level PressureIn, Max VisibilityMiles, Mean VisibilityMiles, Min VisibilityMiles, Max Wind SpeedMPH, Mean Wind SpeedMPH, Max Gust SpeedMPH,PrecipitationIn, CloudCover, Events, WindDirDegrees
2012-11-1,69,60,51,57,54,50,100,78,55,30.06,30.02,30.00,10,7,0,25,4,30,0.00,7,Fog,336
2012-11-2,75,62,49,56,53,50,100,73,46,30.03,30.00,29.96,10,7,0,22,6,30,0.00,3,Fog-Rain,303
2012-11-3,79,63,46,54,50,46,96,67,38,30.08,30.04,30.00,10,10,7,17,4,,0.00,0,,189
2012-11-4,91,69,46,50,45,34,86,50,14,30.12,30.08,30.04,10,10,8,12,3,,0.00,0,Rain,178
2012-11-5,94,72,49,43,38,29,80,45,10,30.10,30.06,30.00,10,10,10,10,4,,0.00,0,,93
2012-11-6,88,70,51,55,41,31,79,44,13,30.07,30.04,30.01,10,10,10,10,3,,0.00,0,,140
2012-11-7,68,57,46,54,50,37,100,77,54,30.09,30.05,29.98,10,6,0,13,4,,0.00,5,Fog,247
2012-11-8,63,56,49,52,48,41,93,70,46,30.04,29.98,29.94,10,9,5,23,7,40,0.01,7,Rain,316
2012-11-9,60,50,40,48,43,38,100,73,46,30.03,29.98,29.94,10,9,3,20,5,25,0.10,2,Rain,208
2012-11-10,60,48,35,44,39,34,92,69,46,30.24,30.14,30.03,10,10,7,24,6,26,0.00,0,,294
2012-11-11,67,51,34,42,34,19,92,54,16,30.34,30.30,30.25,10,10,9,17,4,23,0.00,0,,305
2012-11-12,70,52,33,46,37,29,85,54,22,30.35,30.22,30.14,10,7,1,24,4,31,0.00,0,,312
2012-11-13,79,58,37,42,33,28,79,48,16,30.17,30.09,30.04,10,10,6,9,4,14,0.00,0,,126
2012-11-14,78,60,41,35,31,22,70,42,14,30.08,30.03,30.00,10,10,10,13,0,0,0.00,2,,102
2012-11-15,67,57,47,46,36,29,59,43,26,30.08,30.03,29.96,10,10,10,21,5,41,T,4,Rain,133
2012-11-16,70,61,52,57,51,40,78,62,46,30.06,30.01,29.97,10,10,4,23,11,29,0.01,7,Rain,142
2012-11-17,67,61,54,61,58,54,100,86,72,30.13,30.04,29.96,10,7,1,18,7,24,0.36,8,Rain,176
2012-11-18,64,56,47,58,53,48,100,89,78,30.21,30.14,30.10,10,4,0,12,4,15,0.01,4,Fog-Rain,192
2012-11-19,69,58,46,54,48,39,100,68,35,30.28,30.23,30.19,10,6,0,15,3,17,0.00,2,Fog,25
2012-11-20,69,56,43,55,50,41,100,78,55,30.24,30.17,30.10,10,7,0,21,4,30,0.00,1,Fog,323
2012-11-21,70,59,47,58,53,47,100,81,61,30.20,30.13,30.09,10,4,0,21,5,34,T,6,Fog,297
2012-11-22,75,61,47,51,48,44,93,66,38,30.15,30.11,30.07,10,10,9,12,2,,0.00,0,,235
2012-11-23,79,62,44,52,45,38,93,58,23,30.19,30.14,30.09,10,10,10,8,3,,0.00,0,,173
2012-11-24,80,63,45,48,43,38,86,54,21,30.11,30.04,29.96,10,10,10,9,3,,0.00,0,,277
2012-11-25,75,59,42,54,47,39,100,66,31,29.98,29.94,29.91,10,8,3,17,4,,0.00,3,,122
2012-11-26,65,58,50,52,50,48,100,82,63,30.13,30.06,29.99,9,6,3,14,4,44,0.01,6,,107
2012-11-27,66,58,49,51,49,45,93,75,56,30.17,30.12,30.07,10,8,4,13,4,,0.00,5,,127
2012-11-28,68,58,47,56,51,45,93,75,56,30.13,30.07,30.02,10,10,8,31,13,40,0.02,5,Rain,137
2012-11-29,68,63,58,61,57,56,90,77,63,30.17,30.12,30.09,10,9,3,17,8,22,0.03,7,Rain,156
2012-11-30,68,64,60,61,59,57,100,84,68,30.14,30.08,30.01,10,6,1,20,8,26,0.21,7,Rain,162